sensor_id;sensor_type;location;lat;lon;timestamp;P1;durP1;ratioP1;P2;durP2;ratioP2
4696;SDS011;2362;50.780;0.292;2022-10-31T00:00:58;31.83;;;4.20;;
4696;SDS011;2362;50.780;0.292;2022-10-31T00:03:24;36.42;;;5.10;;
4696;SDS011;2362;50.780;0.292;2022-10-31T00:05:51;48.40;;;5.93;;
4696;SDS011;2362;50.780;0.292;2022-10-31T00:08:17;27.58;;;4.63;;
4696;SDS011;2362;50.780;0.292;2022-10-31T00:10:44;40.17;;;4.00;;
4696;SDS011;2362;50.780;0.292;2022-10-31T00:13:10;35.72;;;4.20;;
4696;SDS011;2362;50.780;0.292;2022-10-31T00:15:38;36.45;;;3.33;;
4696;SDS011;2362;50.780;0.292;2022-10-31T00:18:05;34.53;;;4.40;;
4696;SDS011;2362;50.780;0.292;2022-10-31T00:20:32;39.53;;;3.58;;
4696;SDS011;2362;50.780;0.292;2022-10-31T00:22:59;32.45;;;3.70;;
4696;SDS011;2362;50.780;0.292;2022-10-31T00:25:26;29.88;;;4.13;;
4696;SDS011;2362;50.780;0.292;2022-10-31T00:27:56;33.65;;;4.70;;
4696;SDS011;2362;50.780;0.292;2022-10-31T00:30:23;31.80;;;4.00;;
4696;SDS011;2362;50.780;0.292;2022-10-31T00:32:49;28.42;;;3.42;;
4696;SDS011;2362;50.780;0.292;2022-10-31T00:35:15;30.38;;;3.67;;
4696;SDS011;2362;50.780;0.292;2022-10-31T00:37:41;36.17;;;4.78;;
4696;SDS011;2362;50.780;0.292;2022-10-31T00:40:07;31.98;;;4.70;;
4696;SDS011;2362;50.780;0.292;2022-10-31T00:42:33;32.75;;;4.38;;
4696;SDS011;2362;50.780;0.292;2022-10-31T00:44:59;34.53;;;4.28;;
4696;SDS011;2362;50.780;0.292;2022-10-31T00:47:24;38.67;;;4.13;;
4696;SDS011;2362;50.780;0.292;2022-10-31T00:49:50;35.42;;;4.30;;
4696;SDS011;2362;50.780;0.292;2022-10-31T00:52:16;27.52;;;3.70;;
4696;SDS011;2362;50.780;0.292;2022-10-31T00:54:42;44.30;;;3.78;;
4696;SDS011;2362;50.780;0.292;2022-10-31T00:57:33;27.20;;;4.35;;
4696;SDS011;2362;50.780;0.292;2022-10-31T01:00:24;27.30;;;3.80;;
4696;SDS011;2362;50.780;0.292;2022-10-31T01:03:15;30.13;;;3.78;;
4696;SDS011;2362;50.780;0.292;2022-10-31T01:05:41;33.45;;;4.15;;
4696;SDS011;2362;50.780;0.292;2022-10-31T01:08:07;28.02;;;3.25;;
4696;SDS011;2362;50.780;0.292;2022-10-31T01:10:33;39.38;;;5.40;;
4696;SDS011;2362;50.780;0.292;2022-10-31T01:12:59;37.95;;;3.88;;
4696;SDS011;2362;50.780;0.292;2022-10-31T01:15:24;28.10;;;3.13;;
4696;SDS011;2362;50.780;0.292;2022-10-31T01:17:50;53.35;;;3.65;;
4696;SDS011;2362;50.780;0.292;2022-10-31T01:20:18;35.15;;;4.30;;
4696;SDS011;2362;50.780;0.292;2022-10-31T01:22:44;38.67;;;4.57;;
4696;SDS011;2362;50.780;0.292;2022-10-31T01:25:10;40.53;;;5.38;;
4696;SDS011;2362;50.780;0.292;2022-10-31T01:27:36;33.95;;;3.75;;
4696;SDS011;2362;50.780;0.292;2022-10-31T01:30:02;48.17;;;4.80;;
4696;SDS011;2362;50.780;0.292;2022-10-31T01:32:29;27.50;;;3.05;;
4696;SDS011;2362;50.780;0.292;2022-10-31T01:34:55;28.50;;;3.67;;
4696;SDS011;2362;50.780;0.292;2022-10-31T01:37:21;34.25;;;4.32;;
4696;SDS011;2362;50.780;0.292;2022-10-31T01:39:47;40.35;;;3.63;;
4696;SDS011;2362;50.780;0.292;2022-10-31T01:42:21;38.33;;;4.90;;
4696;SDS011;2362;50.780;0.292;2022-10-31T01:44:50;34.42;;;3.13;;
4696;SDS011;2362;50.780;0.292;2022-10-31T01:47:19;27.95;;;4.53;;
4696;SDS011;2362;50.780;0.292;2022-10-31T01:50:06;25.63;;;3.88;;
4696;SDS011;2362;50.780;0.292;2022-10-31T01:52:42;28.42;;;4.25;;
4696;SDS011;2362;50.780;0.292;2022-10-31T01:55:44;20.10;;;2.67;;
4696;SDS011;2362;50.780;0.292;2022-10-31T01:58:06;25.02;;;3.28;;
4696;SDS011;2362;50.780;0.292;2022-10-31T02:00:37;32.38;;;3.75;;
4696;SDS011;2362;50.780;0.292;2022-10-31T02:03:04;29.02;;;3.38;;
4696;SDS011;2362;50.780;0.292;2022-10-31T02:05:30;34.38;;;5.28;;
4696;SDS011;2362;50.780;0.292;2022-10-31T02:10:59;29.05;;;4.10;;
4696;SDS011;2362;50.780;0.292;2022-10-31T02:13:27;19.42;;;2.65;;
4696;SDS011;2362;50.780;0.292;2022-10-31T02:15:55;26.77;;;3.63;;
4696;SDS011;2362;50.780;0.292;2022-10-31T02:18:23;25.70;;;3.70;;
4696;SDS011;2362;50.780;0.292;2022-10-31T02:30:10;33.58;;;4.57;;
4696;SDS011;2362;50.780;0.292;2022-10-31T02:43:38;43.75;;;5.35;;
4696;SDS011;2362;50.780;0.292;2022-10-31T02:46:14;26.23;;;4.43;;
4696;SDS011;2362;50.780;0.292;2022-10-31T02:48:50;35.42;;;4.38;;
4696;SDS011;2362;50.780;0.292;2022-10-31T02:51:19;40.72;;;4.20;;
4696;SDS011;2362;50.780;0.292;2022-10-31T02:53:45;41.33;;;4.20;;
4696;SDS011;2362;50.780;0.292;2022-10-31T02:56:12;29.30;;;3.35;;
4696;SDS011;2362;50.780;0.292;2022-10-31T02:58:42;41.67;;;4.43;;
4696;SDS011;2362;50.780;0.292;2022-10-31T03:12:42;28.77;;;4.00;;
4696;SDS011;2362;50.780;0.292;2022-10-31T03:15:40;37.45;;;5.43;;
4696;SDS011;2362;50.780;0.292;2022-10-31T03:20:41;37.97;;;4.47;;
4696;SDS011;2362;50.780;0.292;2022-10-31T03:23:12;38.92;;;4.40;;
4696;SDS011;2362;50.780;0.292;2022-10-31T03:25:41;40.40;;;4.53;;
4696;SDS011;2362;50.780;0.292;2022-10-31T03:28:07;29.23;;;3.60;;
4696;SDS011;2362;50.780;0.292;2022-10-31T03:30:37;27.80;;;6.32;;
4696;SDS011;2362;50.780;0.292;2022-10-31T03:33:07;43.97;;;5.57;;
4696;SDS011;2362;50.780;0.292;2022-10-31T03:35:37;31.35;;;3.58;;
4696;SDS011;2362;50.780;0.292;2022-10-31T03:38:32;36.90;;;3.92;;
4696;SDS011;2362;50.780;0.292;2022-10-31T03:41:26;50.67;;;5.47;;
4696;SDS011;2362;50.780;0.292;2022-10-31T03:44:01;44.90;;;4.50;;
4696;SDS011;2362;50.780;0.292;2022-10-31T03:46:30;39.67;;;5.45;;
4696;SDS011;2362;50.780;0.292;2022-10-31T03:48:57;47.28;;;5.55;;
4696;SDS011;2362;50.780;0.292;2022-10-31T03:51:33;37.67;;;4.28;;
4696;SDS011;2362;50.780;0.292;2022-10-31T03:57:15;35.75;;;4.95;;
4696;SDS011;2362;50.780;0.292;2022-10-31T03:59:51;48.00;;;4.93;;
4696;SDS011;2362;50.780;0.292;2022-10-31T04:02:26;53.25;;;4.82;;
4696;SDS011;2362;50.780;0.292;2022-10-31T04:04:55;35.90;;;3.88;;
4696;SDS011;2362;50.780;0.292;2022-10-31T04:07:22;41.40;;;4.25;;
4696;SDS011;2362;50.780;0.292;2022-10-31T04:09:53;35.05;;;4.82;;
4696;SDS011;2362;50.780;0.292;2022-10-31T04:12:20;38.28;;;4.20;;
4696;SDS011;2362;50.780;0.292;2022-10-31T04:14:50;30.55;;;3.75;;
4696;SDS011;2362;50.780;0.292;2022-10-31T04:17:17;34.40;;;3.80;;
4696;SDS011;2362;50.780;0.292;2022-10-31T04:19:45;37.35;;;4.63;;
4696;SDS011;2362;50.780;0.292;2022-10-31T04:22:11;42.80;;;4.70;;
4696;SDS011;2362;50.780;0.292;2022-10-31T04:24:37;33.83;;;4.50;;
4696;SDS011;2362;50.780;0.292;2022-10-31T04:27:05;32.13;;;3.80;;
4696;SDS011;2362;50.780;0.292;2022-10-31T04:29:32;46.70;;;4.25;;
4696;SDS011;2362;50.780;0.292;2022-10-31T04:31:58;49.08;;;5.07;;
4696;SDS011;2362;50.780;0.292;2022-10-31T04:34:23;36.10;;;4.05;;
4696;SDS011;2362;50.780;0.292;2022-10-31T04:36:49;45.28;;;4.97;;
4696;SDS011;2362;50.780;0.292;2022-10-31T04:39:15;51.35;;;5.65;;
4696;SDS011;2362;50.780;0.292;2022-10-31T04:41:41;39.85;;;4.30;;
4696;SDS011;2362;50.780;0.292;2022-10-31T04:44:06;39.03;;;4.63;;
4696;SDS011;2362;50.780;0.292;2022-10-31T04:46:33;30.70;;;3.20;;
4696;SDS011;2362;50.780;0.292;2022-10-31T04:48:58;47.65;;;5.50;;
4696;SDS011;2362;50.780;0.292;2022-10-31T04:51:24;29.80;;;3.67;;
4696;SDS011;2362;50.780;0.292;2022-10-31T04:53:50;27.30;;;3.47;;
4696;SDS011;2362;50.780;0.292;2022-10-31T04:56:16;26.25;;;2.95;;
4696;SDS011;2362;50.780;0.292;2022-10-31T04:58:41;32.65;;;3.65;;
4696;SDS011;2362;50.780;0.292;2022-10-31T05:01:07;37.55;;;3.78;;
4696;SDS011;2362;50.780;0.292;2022-10-31T05:03:33;35.72;;;4.57;;
4696;SDS011;2362;50.780;0.292;2022-10-31T05:05:59;24.95;;;4.15;;
4696;SDS011;2362;50.780;0.292;2022-10-31T05:08:24;34.65;;;4.15;;
4696;SDS011;2362;50.780;0.292;2022-10-31T05:10:50;28.60;;;4.88;;
4696;SDS011;2362;50.780;0.292;2022-10-31T05:13:17;33.05;;;3.95;;
4696;SDS011;2362;50.780;0.292;2022-10-31T05:15:42;19.65;;;2.72;;
4696;SDS011;2362;50.780;0.292;2022-10-31T05:18:10;27.45;;;3.10;;
4696;SDS011;2362;50.780;0.292;2022-10-31T05:20:36;22.55;;;3.08;;
4696;SDS011;2362;50.780;0.292;2022-10-31T05:23:02;32.15;;;4.30;;
4696;SDS011;2362;50.780;0.292;2022-10-31T05:25:28;46.28;;;5.00;;
4696;SDS011;2362;50.780;0.292;2022-10-31T05:27:55;33.00;;;3.55;;
4696;SDS011;2362;50.780;0.292;2022-10-31T05:30:22;39.67;;;4.20;;
4696;SDS011;2362;50.780;0.292;2022-10-31T05:32:53;31.75;;;4.38;;
4696;SDS011;2362;50.780;0.292;2022-10-31T05:35:29;37.75;;;4.50;;
4696;SDS011;2362;50.780;0.292;2022-10-31T05:37:56;37.47;;;3.65;;
4696;SDS011;2362;50.780;0.292;2022-10-31T05:40:23;29.23;;;4.65;;
4696;SDS011;2362;50.780;0.292;2022-10-31T05:42:53;28.90;;;4.75;;
4696;SDS011;2362;50.780;0.292;2022-10-31T05:45:20;36.38;;;3.70;;
4696;SDS011;2362;50.780;0.292;2022-10-31T05:47:56;36.58;;;3.83;;
4696;SDS011;2362;50.780;0.292;2022-10-31T05:50:49;31.20;;;3.22;;
4696;SDS011;2362;50.780;0.292;2022-10-31T05:53:15;30.77;;;4.72;;
4696;SDS011;2362;50.780;0.292;2022-10-31T05:55:41;38.72;;;4.70;;
4696;SDS011;2362;50.780;0.292;2022-10-31T05:58:08;21.42;;;2.97;;
4696;SDS011;2362;50.780;0.292;2022-10-31T06:00:34;30.88;;;3.80;;
4696;SDS011;2362;50.780;0.292;2022-10-31T06:03:01;28.67;;;3.55;;
4696;SDS011;2362;50.780;0.292;2022-10-31T06:05:29;23.30;;;3.78;;
4696;SDS011;2362;50.780;0.292;2022-10-31T06:07:55;36.10;;;3.20;;
4696;SDS011;2362;50.780;0.292;2022-10-31T06:10:21;32.53;;;3.65;;
4696;SDS011;2362;50.780;0.292;2022-10-31T06:12:47;25.45;;;3.47;;
4696;SDS011;2362;50.780;0.292;2022-10-31T06:15:13;21.85;;;3.17;;
4696;SDS011;2362;50.780;0.292;2022-10-31T06:17:39;24.92;;;3.05;;
4696;SDS011;2362;50.780;0.292;2022-10-31T06:20:05;27.95;;;3.00;;
4696;SDS011;2362;50.780;0.292;2022-10-31T06:22:32;33.05;;;3.70;;
4696;SDS011;2362;50.780;0.292;2022-10-31T06:24:58;37.38;;;5.10;;
4696;SDS011;2362;50.780;0.292;2022-10-31T06:27:24;34.95;;;3.80;;
4696;SDS011;2362;50.780;0.292;2022-10-31T06:29:50;18.67;;;2.58;;
4696;SDS011;2362;50.780;0.292;2022-10-31T06:32:16;29.25;;;3.97;;
4696;SDS011;2362;50.780;0.292;2022-10-31T06:34:43;23.80;;;3.55;;
4696;SDS011;2362;50.780;0.292;2022-10-31T06:37:10;30.48;;;3.97;;
4696;SDS011;2362;50.780;0.292;2022-10-31T06:39:37;35.25;;;4.43;;
4696;SDS011;2362;50.780;0.292;2022-10-31T06:42:28;33.90;;;3.83;;
4696;SDS011;2362;50.780;0.292;2022-10-31T06:44:54;39.13;;;5.10;;
4696;SDS011;2362;50.780;0.292;2022-10-31T06:47:20;33.63;;;3.10;;
4696;SDS011;2362;50.780;0.292;2022-10-31T06:49:46;30.63;;;4.35;;
4696;SDS011;2362;50.780;0.292;2022-10-31T06:52:11;35.72;;;4.70;;
4696;SDS011;2362;50.780;0.292;2022-10-31T06:54:37;29.95;;;4.38;;
4696;SDS011;2362;50.780;0.292;2022-10-31T06:57:03;36.58;;;3.78;;
4696;SDS011;2362;50.780;0.292;2022-10-31T06:59:29;25.63;;;4.28;;
4696;SDS011;2362;50.780;0.292;2022-10-31T07:04:48;27.65;;;4.15;;
4696;SDS011;2362;50.780;0.292;2022-10-31T07:07:14;40.28;;;4.43;;
4696;SDS011;2362;50.780;0.292;2022-10-31T07:09:39;41.67;;;4.22;;
4696;SDS011;2362;50.780;0.292;2022-10-31T07:12:05;33.75;;;5.28;;
4696;SDS011;2362;50.780;0.292;2022-10-31T07:14:31;37.58;;;3.63;;
4696;SDS011;2362;50.780;0.292;2022-10-31T07:16:57;31.25;;;4.13;;
4696;SDS011;2362;50.780;0.292;2022-10-31T07:19:22;17.95;;;3.10;;
4696;SDS011;2362;50.780;0.292;2022-10-31T07:21:48;29.00;;;3.42;;
4696;SDS011;2362;50.780;0.292;2022-10-31T07:24:14;29.77;;;3.70;;
4696;SDS011;2362;50.780;0.292;2022-10-31T07:26:40;28.75;;;3.25;;
4696;SDS011;2362;50.780;0.292;2022-10-31T07:29:07;29.33;;;3.53;;
4696;SDS011;2362;50.780;0.292;2022-10-31T07:31:33;26.73;;;3.63;;
4696;SDS011;2362;50.780;0.292;2022-10-31T07:33:58;28.90;;;4.05;;
4696;SDS011;2362;50.780;0.292;2022-10-31T07:36:24;34.38;;;4.50;;
4696;SDS011;2362;50.780;0.292;2022-10-31T07:38:50;35.08;;;3.83;;
4696;SDS011;2362;50.780;0.292;2022-10-31T07:41:16;27.58;;;3.95;;
4696;SDS011;2362;50.780;0.292;2022-10-31T07:43:41;27.38;;;3.28;;
4696;SDS011;2362;50.780;0.292;2022-10-31T07:46:07;17.52;;;3.33;;
4696;SDS011;2362;50.780;0.292;2022-10-31T07:48:33;29.48;;;3.67;;
4696;SDS011;2362;50.780;0.292;2022-10-31T07:50:59;31.52;;;4.63;;
4696;SDS011;2362;50.780;0.292;2022-10-31T07:53:25;26.33;;;3.58;;
4696;SDS011;2362;50.780;0.292;2022-10-31T07:55:50;18.20;;;2.72;;
4696;SDS011;2362;50.780;0.292;2022-10-31T07:58:16;35.47;;;3.55;;
4696;SDS011;2362;50.780;0.292;2022-10-31T08:00:43;33.05;;;4.45;;
4696;SDS011;2362;50.780;0.292;2022-10-31T08:03:10;21.30;;;3.13;;
4696;SDS011;2362;50.780;0.292;2022-10-31T08:05:38;22.48;;;3.63;;
4696;SDS011;2362;50.780;0.292;2022-10-31T08:08:06;33.40;;;3.90;;
4696;SDS011;2362;50.780;0.292;2022-10-31T08:10:32;26.42;;;3.67;;
4696;SDS011;2362;50.780;0.292;2022-10-31T08:13:03;33.35;;;5.38;;
4696;SDS011;2362;50.780;0.292;2022-10-31T08:15:31;19.42;;;3.38;;
4696;SDS011;2362;50.780;0.292;2022-10-31T08:18:24;31.25;;;4.18;;
4696;SDS011;2362;50.780;0.292;2022-10-31T08:20:50;30.05;;;4.20;;
4696;SDS011;2362;50.780;0.292;2022-10-31T08:23:16;21.30;;;3.10;;
4696;SDS011;2362;50.780;0.292;2022-10-31T08:25:42;33.53;;;3.10;;
4696;SDS011;2362;50.780;0.292;2022-10-31T08:28:08;29.35;;;2.83;;
4696;SDS011;2362;50.780;0.292;2022-10-31T08:30:36;26.33;;;3.15;;
4696;SDS011;2362;50.780;0.292;2022-10-31T08:33:03;22.42;;;3.50;;
4696;SDS011;2362;50.780;0.292;2022-10-31T08:35:32;29.75;;;4.05;;
4696;SDS011;2362;50.780;0.292;2022-10-31T08:37:58;18.13;;;2.80;;
4696;SDS011;2362;50.780;0.292;2022-10-31T08:40:25;21.13;;;3.08;;
4696;SDS011;2362;50.780;0.292;2022-10-31T08:42:59;32.08;;;3.15;;
4696;SDS011;2362;50.780;0.292;2022-10-31T08:45:26;16.95;;;2.83;;
4696;SDS011;2362;50.780;0.292;2022-10-31T08:47:56;18.33;;;2.90;;
4696;SDS011;2362;50.780;0.292;2022-10-31T08:50:27;18.55;;;2.10;;
4696;SDS011;2362;50.780;0.292;2022-10-31T08:52:53;23.70;;;3.22;;
4696;SDS011;2362;50.780;0.292;2022-10-31T08:55:24;29.15;;;2.90;;
4696;SDS011;2362;50.780;0.292;2022-10-31T08:57:54;21.63;;;2.78;;
4696;SDS011;2362;50.780;0.292;2022-10-31T09:00:23;17.77;;;3.03;;
4696;SDS011;2362;50.780;0.292;2022-10-31T09:02:59;17.25;;;2.83;;
4696;SDS011;2362;50.780;0.292;2022-10-31T09:05:26;30.10;;;2.90;;
4696;SDS011;2362;50.780;0.292;2022-10-31T09:07:56;18.10;;;2.83;;
4696;SDS011;2362;50.780;0.292;2022-10-31T09:10:26;17.10;;;2.60;;
4696;SDS011;2362;50.780;0.292;2022-10-31T09:12:59;18.80;;;2.40;;
4696;SDS011;2362;50.780;0.292;2022-10-31T09:15:26;27.17;;;3.92;;
4696;SDS011;2362;50.780;0.292;2022-10-31T09:17:53;19.55;;;2.22;;
4696;SDS011;2362;50.780;0.292;2022-10-31T09:20:19;23.35;;;2.83;;
4696;SDS011;2362;50.780;0.292;2022-10-31T09:22:45;18.63;;;2.38;;
4696;SDS011;2362;50.780;0.292;2022-10-31T09:25:11;30.35;;;3.35;;
4696;SDS011;2362;50.780;0.292;2022-10-31T09:27:37;13.90;;;2.42;;
4696;SDS011;2362;50.780;0.292;2022-10-31T09:30:03;21.40;;;3.00;;
4696;SDS011;2362;50.780;0.292;2022-10-31T09:32:29;14.30;;;2.67;;
4696;SDS011;2362;50.780;0.292;2022-10-31T09:34:55;21.17;;;3.10;;
4696;SDS011;2362;50.780;0.292;2022-10-31T09:37:21;20.23;;;2.80;;
4696;SDS011;2362;50.780;0.292;2022-10-31T09:39:47;18.70;;;2.30;;
4696;SDS011;2362;50.780;0.292;2022-10-31T09:42:25;19.02;;;3.13;;
4696;SDS011;2362;50.780;0.292;2022-10-31T09:44:59;28.80;;;2.97;;
4696;SDS011;2362;50.780;0.292;2022-10-31T09:47:49;17.95;;;2.60;;
4696;SDS011;2362;50.780;0.292;2022-10-31T09:50:40;20.52;;;2.13;;
4696;SDS011;2362;50.780;0.292;2022-10-31T09:53:23;21.67;;;2.70;;
4696;SDS011;2362;50.780;0.292;2022-10-31T09:55:51;13.43;;;1.80;;
4696;SDS011;2362;50.780;0.292;2022-10-31T09:58:23;25.92;;;2.55;;
4696;SDS011;2362;50.780;0.292;2022-10-31T10:00:51;18.15;;;3.03;;
4696;SDS011;2362;50.780;0.292;2022-10-31T10:03:43;23.95;;;4.95;;
4696;SDS011;2362;50.780;0.292;2022-10-31T10:06:17;17.05;;;2.72;;
4696;SDS011;2362;50.780;0.292;2022-10-31T10:08:46;12.85;;;1.75;;
4696;SDS011;2362;50.780;0.292;2022-10-31T10:30:21;12.07;;;2.10;;
4696;SDS011;2362;50.780;0.292;2022-10-31T10:33:09;16.63;;;2.15;;
4696;SDS011;2362;50.780;0.292;2022-10-31T10:35:53;19.27;;;2.08;;
4696;SDS011;2362;50.780;0.292;2022-10-31T10:41:05;16.45;;;2.42;;
4696;SDS011;2362;50.780;0.292;2022-10-31T10:43:36;10.77;;;1.98;;
4696;SDS011;2362;50.780;0.292;2022-10-31T10:49:12;14.70;;;2.45;;
4696;SDS011;2362;50.780;0.292;2022-10-31T10:58:00;16.88;;;2.67;;
4696;SDS011;2362;50.780;0.292;2022-10-31T11:00:30;17.73;;;2.30;;
4696;SDS011;2362;50.780;0.292;2022-10-31T11:03:13;11.75;;;2.00;;
4696;SDS011;2362;50.780;0.292;2022-10-31T11:08:28;17.50;;;1.92;;
4696;SDS011;2362;50.780;0.292;2022-10-31T11:11:13;23.48;;;2.05;;
4696;SDS011;2362;50.780;0.292;2022-10-31T11:14:05;18.70;;;2.63;;
4696;SDS011;2362;50.780;0.292;2022-10-31T11:16:39;16.00;;;2.22;;
4696;SDS011;2362;50.780;0.292;2022-10-31T11:19:20;24.13;;;3.40;;
4696;SDS011;2362;50.780;0.292;2022-10-31T11:21:49;25.65;;;3.22;;
4696;SDS011;2362;50.780;0.292;2022-10-31T11:24:19;23.25;;;2.85;;
4696;SDS011;2362;50.780;0.292;2022-10-31T11:26:48;14.55;;;2.55;;
4696;SDS011;2362;50.780;0.292;2022-10-31T11:29:22;16.13;;;3.25;;
4696;SDS011;2362;50.780;0.292;2022-10-31T11:31:53;20.95;;;2.53;;
4696;SDS011;2362;50.780;0.292;2022-10-31T11:34:26;16.02;;;2.50;;
4696;SDS011;2362;50.780;0.292;2022-10-31T11:37:15;14.23;;;2.28;;
4696;SDS011;2362;50.780;0.292;2022-10-31T11:39:52;17.73;;;3.58;;
4696;SDS011;2362;50.780;0.292;2022-10-31T11:42:21;17.23;;;2.83;;
4696;SDS011;2362;50.780;0.292;2022-10-31T11:44:48;16.95;;;2.38;;
4696;SDS011;2362;50.780;0.292;2022-10-31T11:47:16;18.30;;;2.38;;
4696;SDS011;2362;50.780;0.292;2022-10-31T11:49:43;18.35;;;2.92;;
4696;SDS011;2362;50.780;0.292;2022-10-31T11:52:40;13.18;;;1.98;;
4696;SDS011;2362;50.780;0.292;2022-10-31T11:58:25;12.48;;;2.47;;
4696;SDS011;2362;50.780;0.292;2022-10-31T12:00:53;19.25;;;2.85;;
4696;SDS011;2362;50.780;0.292;2022-10-31T12:03:26;14.65;;;3.78;;
4696;SDS011;2362;50.780;0.292;2022-10-31T12:08:24;23.67;;;3.40;;
4696;SDS011;2362;50.780;0.292;2022-10-31T12:32:18;21.00;;;3.08;;
4696;SDS011;2362;50.780;0.292;2022-10-31T12:37:34;11.82;;;2.13;;
4696;SDS011;2362;50.780;0.292;2022-10-31T12:51:00;13.20;;;1.92;;
4696;SDS011;2362;50.780;0.292;2022-10-31T12:53:45;21.58;;;2.65;;
4696;SDS011;2362;50.780;0.292;2022-10-31T12:59:16;13.25;;;2.75;;
4696;SDS011;2362;50.780;0.292;2022-10-31T13:02:16;24.02;;;2.55;;
4696;SDS011;2362;50.780;0.292;2022-10-31T13:04:53;19.55;;;3.70;;
4696;SDS011;2362;50.780;0.292;2022-10-31T13:07:28;18.77;;;3.58;;
4696;SDS011;2362;50.780;0.292;2022-10-31T13:09:58;21.60;;;3.33;;
4696;SDS011;2362;50.780;0.292;2022-10-31T13:12:26;18.17;;;3.17;;
4696;SDS011;2362;50.780;0.292;2022-10-31T13:14:55;28.15;;;2.97;;
4696;SDS011;2362;50.780;0.292;2022-10-31T13:17:27;16.35;;;2.45;;
4696;SDS011;2362;50.780;0.292;2022-10-31T13:22:38;17.08;;;2.67;;
4696;SDS011;2362;50.780;0.292;2022-10-31T13:35:19;21.77;;;2.95;;
4696;SDS011;2362;50.780;0.292;2022-10-31T13:37:57;18.83;;;3.70;;
4696;SDS011;2362;50.780;0.292;2022-10-31T13:40:58;17.10;;;3.30;;
4696;SDS011;2362;50.780;0.292;2022-10-31T13:48:57;16.73;;;3.72;;
4696;SDS011;2362;50.780;0.292;2022-10-31T13:51:27;27.08;;;4.70;;
4696;SDS011;2362;50.780;0.292;2022-10-31T13:56:21;20.55;;;4.35;;
4696;SDS011;2362;50.780;0.292;2022-10-31T14:01:26;31.08;;;5.68;;
4696;SDS011;2362;50.780;0.292;2022-10-31T14:04:02;20.65;;;7.63;;
4696;SDS011;2362;50.780;0.292;2022-10-31T14:06:36;20.97;;;5.53;;
4696;SDS011;2362;50.780;0.292;2022-10-31T14:09:31;21.35;;;5.68;;
4696;SDS011;2362;50.780;0.292;2022-10-31T14:12:04;27.98;;;5.10;;
4696;SDS011;2362;50.780;0.292;2022-10-31T14:14:51;38.45;;;7.15;;
4696;SDS011;2362;50.780;0.292;2022-10-31T14:17:25;23.00;;;6.28;;
4696;SDS011;2362;50.780;0.292;2022-10-31T14:20:03;29.65;;;7.20;;
4696;SDS011;2362;50.780;0.292;2022-10-31T14:22:43;29.30;;;7.55;;
4696;SDS011;2362;50.780;0.292;2022-10-31T14:25:25;28.13;;;7.05;;
4696;SDS011;2362;50.780;0.292;2022-10-31T14:28:02;26.63;;;7.00;;
4696;SDS011;2362;50.780;0.292;2022-10-31T14:30:50;27.02;;;6.53;;
4696;SDS011;2362;50.780;0.292;2022-10-31T14:33:18;21.27;;;6.10;;
4696;SDS011;2362;50.780;0.292;2022-10-31T14:38:22;28.60;;;6.55;;
4696;SDS011;2362;50.780;0.292;2022-10-31T14:43:53;22.63;;;7.40;;
4696;SDS011;2362;50.780;0.292;2022-10-31T14:51:50;39.33;;;7.75;;
4696;SDS011;2362;50.780;0.292;2022-10-31T14:54:19;35.03;;;9.20;;
4696;SDS011;2362;50.780;0.292;2022-10-31T14:56:53;34.38;;;9.15;;
4696;SDS011;2362;50.780;0.292;2022-10-31T14:59:34;32.35;;;6.57;;
4696;SDS011;2362;50.780;0.292;2022-10-31T15:02:12;27.70;;;6.85;;
4696;SDS011;2362;50.780;0.292;2022-10-31T15:04:43;20.38;;;6.07;;
4696;SDS011;2362;50.780;0.292;2022-10-31T15:07:32;28.92;;;5.97;;
4696;SDS011;2362;50.780;0.292;2022-10-31T15:10:06;28.55;;;6.20;;
4696;SDS011;2362;50.780;0.292;2022-10-31T15:12:44;27.98;;;6.63;;
4696;SDS011;2362;50.780;0.292;2022-10-31T15:15:11;33.88;;;6.53;;
4696;SDS011;2362;50.780;0.292;2022-10-31T15:17:59;37.38;;;8.80;;
4696;SDS011;2362;50.780;0.292;2022-10-31T15:20:27;29.23;;;7.55;;
4696;SDS011;2362;50.780;0.292;2022-10-31T15:22:55;39.22;;;7.53;;
4696;SDS011;2362;50.780;0.292;2022-10-31T15:25:23;24.13;;;8.18;;
4696;SDS011;2362;50.780;0.292;2022-10-31T15:27:52;30.83;;;8.95;;
4696;SDS011;2362;50.780;0.292;2022-10-31T15:30:23;25.52;;;8.10;;
4696;SDS011;2362;50.780;0.292;2022-10-31T15:32:53;41.03;;;9.02;;
4696;SDS011;2362;50.780;0.292;2022-10-31T15:35:23;30.55;;;9.68;;
4696;SDS011;2362;50.780;0.292;2022-10-31T15:37:51;35.45;;;9.63;;
4696;SDS011;2362;50.780;0.292;2022-10-31T15:40:18;36.30;;;9.10;;
4696;SDS011;2362;50.780;0.292;2022-10-31T15:43:02;40.35;;;9.07;;
4696;SDS011;2362;50.780;0.292;2022-10-31T15:45:30;46.45;;;8.93;;
4696;SDS011;2362;50.780;0.292;2022-10-31T15:47:59;35.15;;;9.70;;
4696;SDS011;2362;50.780;0.292;2022-10-31T15:50:30;40.85;;;7.60;;
4696;SDS011;2362;50.780;0.292;2022-10-31T15:53:01;40.08;;;8.50;;
4696;SDS011;2362;50.780;0.292;2022-10-31T15:55:32;47.00;;;9.13;;
4696;SDS011;2362;50.780;0.292;2022-10-31T15:58:09;28.00;;;9.05;;
4696;SDS011;2362;50.780;0.292;2022-10-31T16:00:37;38.42;;;8.70;;
4696;SDS011;2362;50.780;0.292;2022-10-31T16:05:46;29.95;;;9.70;;
4696;SDS011;2362;50.780;0.292;2022-10-31T16:10:57;31.17;;;9.15;;
4696;SDS011;2362;50.780;0.292;2022-10-31T16:14:14;31.48;;;9.63;;
4696;SDS011;2362;50.780;0.292;2022-10-31T16:16:23;48.22;;;11.00;;
4696;SDS011;2362;50.780;0.292;2022-10-31T16:18:50;49.50;;;10.65;;
4696;SDS011;2362;50.780;0.292;2022-10-31T16:21:25;43.17;;;11.43;;
4696;SDS011;2362;50.780;0.292;2022-10-31T16:23:55;56.72;;;13.10;;
4696;SDS011;2362;50.780;0.292;2022-10-31T16:26:24;65.45;;;14.80;;
4696;SDS011;2362;50.780;0.292;2022-10-31T16:28:52;60.58;;;15.13;;
4696;SDS011;2362;50.780;0.292;2022-10-31T16:31:27;55.53;;;14.77;;
4696;SDS011;2362;50.780;0.292;2022-10-31T16:34:09;56.97;;;14.98;;
4696;SDS011;2362;50.780;0.292;2022-10-31T16:36:40;56.55;;;15.45;;
4696;SDS011;2362;50.780;0.292;2022-10-31T16:39:07;61.05;;;15.18;;
4696;SDS011;2362;50.780;0.292;2022-10-31T16:41:34;67.90;;;16.25;;
4696;SDS011;2362;50.780;0.292;2022-10-31T16:44:06;53.97;;;16.58;;
4696;SDS011;2362;50.780;0.292;2022-10-31T16:47:09;52.75;;;16.25;;
4696;SDS011;2362;50.780;0.292;2022-10-31T16:49:40;78.00;;;16.88;;
4696;SDS011;2362;50.780;0.292;2022-10-31T16:52:07;63.50;;;16.67;;
4696;SDS011;2362;50.780;0.292;2022-10-31T16:54:33;62.40;;;17.20;;
4696;SDS011;2362;50.780;0.292;2022-10-31T16:56:59;65.63;;;17.40;;
4696;SDS011;2362;50.780;0.292;2022-10-31T16:59:26;58.70;;;17.15;;
4696;SDS011;2362;50.780;0.292;2022-10-31T17:01:52;49.92;;;15.45;;
4696;SDS011;2362;50.780;0.292;2022-10-31T17:04:20;71.53;;;20.40;;
4696;SDS011;2362;50.780;0.292;2022-10-31T17:06:46;65.00;;;16.83;;
4696;SDS011;2362;50.780;0.292;2022-10-31T17:09:12;73.85;;;15.15;;
4696;SDS011;2362;50.780;0.292;2022-10-31T17:11:44;63.80;;;20.70;;
4696;SDS011;2362;50.780;0.292;2022-10-31T17:14:12;44.47;;;14.25;;
4696;SDS011;2362;50.780;0.292;2022-10-31T17:16:38;65.25;;;15.82;;
4696;SDS011;2362;50.780;0.292;2022-10-31T17:19:04;51.47;;;14.23;;
4696;SDS011;2362;50.780;0.292;2022-10-31T17:21:30;74.90;;;16.23;;
4696;SDS011;2362;50.780;0.292;2022-10-31T17:23:56;46.53;;;13.80;;
4696;SDS011;2362;50.780;0.292;2022-10-31T17:26:22;49.95;;;13.02;;
4696;SDS011;2362;50.780;0.292;2022-10-31T17:28:47;45.35;;;15.32;;
4696;SDS011;2362;50.780;0.292;2022-10-31T17:31:21;43.63;;;12.70;;
4696;SDS011;2362;50.780;0.292;2022-10-31T17:33:48;56.03;;;14.82;;
4696;SDS011;2362;50.780;0.292;2022-10-31T17:36:15;53.15;;;14.65;;
4696;SDS011;2362;50.780;0.292;2022-10-31T17:38:41;52.17;;;15.52;;
4696;SDS011;2362;50.780;0.292;2022-10-31T17:41:07;72.85;;;22.67;;
4696;SDS011;2362;50.780;0.292;2022-10-31T17:43:33;79.18;;;17.52;;
4696;SDS011;2362;50.780;0.292;2022-10-31T17:45:59;52.13;;;14.13;;
4696;SDS011;2362;50.780;0.292;2022-10-31T17:48:27;65.85;;;16.23;;
4696;SDS011;2362;50.780;0.292;2022-10-31T17:50:58;66.68;;;14.50;;
4696;SDS011;2362;50.780;0.292;2022-10-31T17:53:29;55.90;;;15.05;;
4696;SDS011;2362;50.780;0.292;2022-10-31T17:55:59;60.08;;;16.77;;
4696;SDS011;2362;50.780;0.292;2022-10-31T17:58:26;53.88;;;14.90;;
4696;SDS011;2362;50.780;0.292;2022-10-31T18:00:52;52.28;;;14.77;;